createdAt,value
2023-03-16T00:01:22.291Z,3.60
2023-03-16T00:03:48.666Z,3.20
2023-03-16T00:06:15.185Z,3.53
2023-03-16T00:08:43.264Z,3.60
2023-03-16T00:11:09.662Z,3.70
2023-03-16T00:13:36.035Z,3.97
2023-03-16T00:16:07.676Z,3.80
2023-03-16T00:18:39.104Z,2.60
2023-03-16T00:21:06.450Z,3.40
2023-03-16T00:23:35.634Z,3.67
2023-03-16T00:26:03.451Z,3.47
2023-03-16T00:28:35.341Z,3.50
2023-03-16T00:31:06.067Z,3.40
2023-03-16T00:33:35.362Z,3.55
2023-03-16T00:36:02.753Z,3.60
2023-03-16T00:38:30.417Z,3.30
2023-03-16T00:40:56.884Z,3.10
2023-03-16T00:43:23.726Z,3.42
2023-03-16T00:45:50.210Z,3.65
2023-03-16T00:48:18.490Z,3.50
2023-03-16T00:50:44.870Z,3.15
2023-03-16T00:53:11.898Z,3.25
2023-03-16T00:55:38.286Z,3.67
2023-03-16T00:58:05.148Z,3.00
2023-03-16T01:00:31.555Z,3.25
2023-03-16T01:02:58.002Z,3.30
2023-03-16T01:05:24.457Z,3.80
2023-03-16T01:07:52.341Z,3.17
2023-03-16T01:10:18.912Z,3.65
2023-03-16T01:12:45.341Z,3.40
2023-03-16T01:15:12.046Z,3.05
2023-03-16T01:17:38.573Z,3.22
2023-03-16T01:20:08.300Z,3.40
2023-03-16T01:22:34.789Z,2.92
2023-03-16T01:25:01.193Z,3.22
2023-03-16T01:27:27.584Z,2.78
2023-03-16T01:29:54.022Z,3.25
2023-03-16T01:32:20.423Z,2.70
2023-03-16T01:34:46.841Z,3.17
2023-03-16T01:37:13.346Z,3.55
2023-03-16T01:39:39.972Z,2.80
2023-03-16T01:42:06.448Z,2.97
2023-03-16T01:44:50.018Z,3.10
2023-03-16T01:47:16.506Z,3.45
2023-03-16T01:49:47.991Z,3.17
2023-03-16T01:52:20.599Z,3.10
2023-03-16T01:54:57.147Z,2.97
2023-03-16T01:57:24.500Z,2.90
2023-03-16T01:59:57.937Z,2.78
2023-03-16T02:02:26.242Z,3.00
2023-03-16T02:05:04.766Z,3.05
2023-03-16T02:07:34.657Z,2.90
2023-03-16T02:10:02.513Z,3.00
2023-03-16T02:12:29.834Z,2.88
2023-03-16T02:14:56.251Z,3.08
2023-03-16T02:17:27.399Z,2.47
2023-03-16T02:20:12.140Z,2.63
2023-03-16T02:22:39.980Z,2.75
2023-03-16T02:25:06.568Z,2.60
2023-03-16T02:27:40.891Z,2.42
2023-03-16T02:30:14.801Z,2.60
2023-03-16T02:32:41.733Z,2.45
2023-03-16T02:35:08.813Z,2.20
2023-03-16T02:37:35.286Z,2.85
2023-03-16T02:40:02.311Z,2.50
2023-03-16T02:42:29.045Z,2.42
2023-03-16T02:44:57.221Z,2.63
2023-03-16T02:47:37.852Z,2.72
2023-03-16T02:50:07.590Z,2.47
2023-03-16T02:52:34.919Z,2.35
2023-03-16T02:55:01.653Z,2.22
2023-03-16T02:57:28.016Z,2.50
2023-03-16T02:59:54.492Z,2.15
2023-03-16T03:02:20.938Z,2.17
2023-03-16T03:04:47.514Z,2.47
2023-03-16T03:07:14.509Z,2.40
2023-03-16T03:09:42.270Z,2.40
2023-03-16T03:12:09.679Z,2.35
2023-03-16T03:14:39.264Z,2.38
2023-03-16T03:17:07.361Z,2.03
2023-03-16T03:19:34.542Z,2.08
2023-03-16T03:22:04.125Z,2.30
2023-03-16T03:24:31.714Z,2.00
2023-03-16T03:27:00.719Z,2.28
2023-03-16T03:29:34.602Z,2.25
2023-03-16T03:32:04.549Z,2.55
2023-03-16T03:34:31.456Z,2.25
2023-03-16T03:36:58.673Z,2.40
2023-03-16T03:39:25.263Z,2.13
2023-03-16T03:41:54.652Z,2.15
2023-03-16T03:44:21.709Z,2.03
2023-03-16T03:46:48.532Z,2.33
2023-03-16T03:49:15.821Z,2.22
2023-03-16T03:51:42.423Z,2.13
2023-03-16T03:54:09.058Z,1.98
2023-03-16T03:56:35.534Z,2.10
2023-03-16T03:59:02.063Z,2.55
2023-03-16T04:01:28.530Z,2.15
2023-03-16T04:03:54.965Z,1.98
2023-03-16T04:06:21.368Z,1.73
2023-03-16T04:08:47.842Z,2.30
2023-03-16T04:11:15.356Z,2.03
2023-03-16T04:13:41.814Z,2.10
2023-03-16T04:16:09.434Z,2.25
2023-03-16T04:18:38.809Z,1.80
2023-03-16T04:21:06.366Z,1.63
2023-03-16T04:23:33.570Z,1.83
2023-03-16T04:25:59.970Z,1.85
2023-03-16T04:28:26.869Z,2.00
2023-03-16T04:30:56.724Z,1.80
2023-03-16T04:33:23.225Z,1.73
2023-03-16T04:35:49.928Z,1.55
2023-03-16T04:38:16.384Z,1.70
2023-03-16T04:40:42.754Z,1.83
2023-03-16T04:43:09.190Z,1.83
2023-03-16T04:45:35.625Z,1.98
2023-03-16T04:48:02.060Z,1.65
2023-03-16T04:50:28.799Z,1.65
2023-03-16T04:52:55.455Z,1.90
2023-03-16T04:55:23.100Z,1.88
2023-03-16T04:57:49.858Z,1.52
2023-03-16T05:00:19.686Z,1.58
2023-03-16T05:02:46.921Z,1.63
2023-03-16T05:05:13.765Z,1.58
2023-03-16T05:07:41.533Z,1.52
2023-03-16T05:10:08.825Z,1.83
2023-03-16T05:12:35.290Z,1.67
2023-03-16T05:15:01.892Z,1.50
2023-03-16T05:17:28.333Z,1.60
2023-03-16T05:19:54.763Z,1.30
2023-03-16T05:22:21.261Z,1.40
2023-03-16T05:24:47.757Z,1.63
2023-03-16T05:27:14.195Z,1.60
2023-03-16T05:29:40.692Z,1.38
2023-03-16T05:32:07.281Z,1.95
2023-03-16T05:34:33.744Z,1.52
2023-03-16T05:37:00.196Z,1.40
2023-03-16T05:39:28.530Z,1.40
2023-03-16T05:41:55.240Z,1.45
2023-03-16T05:44:21.771Z,1.60
2023-03-16T05:46:48.277Z,1.38
2023-03-16T05:49:15.674Z,1.80
2023-03-16T05:51:42.258Z,1.30
2023-03-16T05:54:09.045Z,1.60
2023-03-16T05:56:35.643Z,1.35
2023-03-16T05:59:02.767Z,1.60
2023-03-16T06:01:29.239Z,1.65
2023-03-16T06:03:55.688Z,1.50
2023-03-16T06:06:22.670Z,1.42
2023-03-16T06:08:49.087Z,1.25
2023-03-16T06:11:15.515Z,1.48
2023-03-16T06:13:41.968Z,1.60
2023-03-16T06:16:08.925Z,1.30
2023-03-16T06:18:35.496Z,1.50
2023-03-16T06:21:01.873Z,1.55
2023-03-16T06:23:28.294Z,1.40
2023-03-16T06:25:55.268Z,1.30
2023-03-16T06:28:22.517Z,1.48
2023-03-16T06:30:48.922Z,1.73
2023-03-16T06:33:15.361Z,1.70
2023-03-16T06:35:41.925Z,1.40
2023-03-16T06:38:08.336Z,1.30
2023-03-16T06:40:34.766Z,1.35
2023-03-16T06:43:02.174Z,1.40
2023-03-16T06:45:28.591Z,1.30
2023-03-16T06:47:56.552Z,1.20
2023-03-16T06:50:22.958Z,1.48
2023-03-16T06:52:49.351Z,1.40
2023-03-16T06:55:15.814Z,1.42
2023-03-16T06:57:42.248Z,1.15
2023-03-16T07:00:15.422Z,1.25
2023-03-16T07:02:43.517Z,1.23
2023-03-16T07:05:13.792Z,1.50
2023-03-16T07:07:43.489Z,1.02
2023-03-16T07:10:11.958Z,1.13
2023-03-16T07:12:38.431Z,1.13
2023-03-16T07:15:05.055Z,1.60
2023-03-16T07:17:32.552Z,1.33
2023-03-16T07:19:58.940Z,1.15
2023-03-16T07:22:25.512Z,1.30
2023-03-16T07:24:57.235Z,1.17
2023-03-16T07:27:24.221Z,1.15
2023-03-16T07:29:52.059Z,1.27
2023-03-16T07:32:18.676Z,1.23
2023-03-16T07:34:45.146Z,1.30
2023-03-16T07:37:11.688Z,1.00
2023-03-16T07:39:38.051Z,1.00
2023-03-16T07:42:04.703Z,1.00
2023-03-16T07:44:31.384Z,0.90
2023-03-16T07:46:57.813Z,0.80
2023-03-16T07:49:24.261Z,1.02
2023-03-16T07:51:51.608Z,1.10
2023-03-16T07:54:17.997Z,1.05
2023-03-16T07:56:49.243Z,1.00
2023-03-16T07:59:16.132Z,1.05
2023-03-16T08:01:42.600Z,0.82
2023-03-16T08:04:10.028Z,1.10
2023-03-16T08:06:36.432Z,1.00
2023-03-16T08:09:03.007Z,0.98
2023-03-16T08:11:29.420Z,0.98
2023-03-16T08:13:56.700Z,0.90
2023-03-16T08:16:27.019Z,1.00
2023-03-16T08:18:56.157Z,0.70
2023-03-16T08:21:22.859Z,0.90
2023-03-16T08:23:50.564Z,1.00
2023-03-16T08:26:19.920Z,1.10
2023-03-16T08:28:47.104Z,1.05
2023-03-16T08:31:14.634Z,1.20
2023-03-16T08:33:42.020Z,1.10
2023-03-16T08:36:09.381Z,0.70
2023-03-16T08:38:35.875Z,1.10
2023-03-16T08:41:02.326Z,0.85
2023-03-16T08:43:28.725Z,0.98
2023-03-16T08:45:55.985Z,1.10
2023-03-16T08:48:22.374Z,0.95
2023-03-16T08:50:48.872Z,0.70
2023-03-16T08:53:15.392Z,0.80
2023-03-16T08:55:42.099Z,1.00
2023-03-16T08:58:09.473Z,0.80
2023-03-16T09:00:36.457Z,0.70
2023-03-16T09:03:02.916Z,0.88
2023-03-16T09:05:29.381Z,1.00
2023-03-16T09:07:55.812Z,1.10
2023-03-16T09:10:23.198Z,0.95
2023-03-16T09:12:50.144Z,0.70
2023-03-16T09:15:16.568Z,0.65
2023-03-16T09:17:45.143Z,0.90
2023-03-16T09:20:34.879Z,0.70
2023-03-16T09:22:59.179Z,0.80
2023-03-16T09:25:26.201Z,0.80
2023-03-16T09:27:52.898Z,0.77
2023-03-16T09:30:19.925Z,0.98
2023-03-16T09:32:48.951Z,0.68
2023-03-16T09:35:15.709Z,0.70
2023-03-16T09:37:45.619Z,0.80
2023-03-16T09:40:28.587Z,0.60
2023-03-16T09:43:01.072Z,0.82
2023-03-16T09:45:53.834Z,0.90
2023-03-16T09:50:49.619Z,0.63
2023-03-16T09:53:25.430Z,0.73
2023-03-16T09:56:13.707Z,0.80
2023-03-16T09:58:40.817Z,0.80
2023-03-16T10:01:26.135Z,0.52
2023-03-16T10:03:54.507Z,0.82
2023-03-16T10:06:21.052Z,0.82
2023-03-16T10:08:50.471Z,0.65
2023-03-16T10:11:22.961Z,0.73
2023-03-16T10:13:58.133Z,0.65
2023-03-16T10:16:30.860Z,0.60
2023-03-16T10:19:01.853Z,0.70
2023-03-16T10:21:31.436Z,0.50
2023-03-16T10:24:02.098Z,0.68
2023-03-16T10:26:36.911Z,0.60
2023-03-16T10:29:04.044Z,0.63
2023-03-16T10:31:30.576Z,0.50
2023-03-16T10:34:02.658Z,0.60
2023-03-16T10:36:32.189Z,0.50
2023-03-16T10:39:09.600Z,0.50
2023-03-16T10:41:37.428Z,0.60
2023-03-16T10:44:10.167Z,0.57
2023-03-16T10:46:40.964Z,0.60
2023-03-16T10:49:19.714Z,0.50
2023-03-16T10:51:46.690Z,0.47
2023-03-16T10:54:15.627Z,0.70
2023-03-16T10:56:44.973Z,0.30
2023-03-16T10:59:40.756Z,0.43
2023-03-16T11:02:18.085Z,0.57
2023-03-16T11:04:44.607Z,0.52
2023-03-16T11:07:16.338Z,0.47
2023-03-16T11:09:43.386Z,0.60
2023-03-16T11:12:15.418Z,0.40
2023-03-16T11:14:45.462Z,0.50
2023-03-16T11:17:20.937Z,0.30
2023-03-16T11:19:54.710Z,0.40
2023-03-16T11:22:23.470Z,0.40
2023-03-16T11:24:55.548Z,0.32
2023-03-16T11:27:21.971Z,0.40
2023-03-16T11:30:00.823Z,0.20
2023-03-16T11:32:33.346Z,0.30
2023-03-16T11:35:00.301Z,0.38
2023-03-16T11:37:35.602Z,0.50
2023-03-16T11:40:12.413Z,0.55
2023-03-16T11:42:43.238Z,0.40
2023-03-16T11:45:10.093Z,0.35
2023-03-16T11:47:45.845Z,0.40
2023-03-16T11:50:15.732Z,0.28
2023-03-16T11:52:42.726Z,0.40
2023-03-16T11:55:27.285Z,0.40
2023-03-16T11:57:53.762Z,0.63
2023-03-16T12:00:26.156Z,0.40
2023-03-16T12:05:39.749Z,0.40
2023-03-16T12:08:25.066Z,0.30
2023-03-16T12:10:52.022Z,0.50
2023-03-16T12:13:30.896Z,0.30
2023-03-16T12:15:59.923Z,0.30
2023-03-16T12:18:30.329Z,0.32
2023-03-16T12:20:57.055Z,0.50
2023-03-16T12:23:32.084Z,0.35
2023-03-16T12:26:03.632Z,0.40
2023-03-16T12:28:31.560Z,0.30
2023-03-16T12:31:09.503Z,0.30
2023-03-16T12:33:48.557Z,0.30
2023-03-16T12:36:26.142Z,0.30
2023-03-16T12:38:53.465Z,0.30
2023-03-16T12:41:36.478Z,0.43
2023-03-16T12:44:15.456Z,0.30
2023-03-16T12:46:49.752Z,0.30
2023-03-16T12:49:16.790Z,0.40
2023-03-16T12:51:43.766Z,0.30
2023-03-16T12:54:21.335Z,0.32
2023-03-16T12:56:48.676Z,0.40
2023-03-16T12:59:19.722Z,0.30
2023-03-16T13:01:48.621Z,0.40
2023-03-16T13:04:20.084Z,0.30
2023-03-16T13:06:49.514Z,0.50
2023-03-16T13:09:25.661Z,0.40
2023-03-16T13:11:53.461Z,0.43
2023-03-16T13:14:54.628Z,0.40
2023-03-16T13:17:21.250Z,0.50
2023-03-16T13:20:06.529Z,0.50
2023-03-16T13:22:43.920Z,0.47
2023-03-16T13:25:28.468Z,0.40
2023-03-16T13:27:55.964Z,0.40
2023-03-16T13:30:24.471Z,0.40
2023-03-16T13:33:00.556Z,0.40
2023-03-16T13:35:28.137Z,0.30
2023-03-16T13:37:54.781Z,0.30
2023-03-16T13:40:25.128Z,0.40
2023-03-16T13:42:53.219Z,0.40
2023-03-16T13:45:22.466Z,0.40
2023-03-16T13:47:49.608Z,0.30
2023-03-16T13:50:17.790Z,0.35
2023-03-16T13:52:57.671Z,0.50
2023-03-16T13:55:34.791Z,0.40
2023-03-16T13:58:02.036Z,0.30
2023-03-16T14:00:32.847Z,0.20
2023-03-16T14:03:02.080Z,0.40
2023-03-16T14:05:31.141Z,0.60
2023-03-16T14:08:00.544Z,0.43
2023-03-16T14:10:29.749Z,0.30
2023-03-16T14:13:06.630Z,0.35
2023-03-16T14:15:33.189Z,0.32
2023-03-16T14:18:26.870Z,0.20
2023-03-16T14:20:54.946Z,0.32
2023-03-16T14:23:24.613Z,0.40
2023-03-16T14:25:51.746Z,0.20
2023-03-16T14:28:19.759Z,0.30
2023-03-16T14:31:01.951Z,0.30
2023-03-16T14:33:29.974Z,0.30
2023-03-16T14:35:57.642Z,0.30
2023-03-16T14:38:32.904Z,0.38
2023-03-16T14:41:23.628Z,0.30
2023-03-16T14:44:00.120Z,0.40
2023-03-16T14:46:33.974Z,0.30
2023-03-16T14:49:08.787Z,0.38
2023-03-16T14:51:36.159Z,0.30
2023-03-16T14:54:02.829Z,0.40
2023-03-16T14:56:35.515Z,0.30
2023-03-16T14:59:01.952Z,0.30
2023-03-16T15:01:28.422Z,0.35
2023-03-16T15:03:55.049Z,0.20
2023-03-16T15:06:21.732Z,0.40
2023-03-16T15:08:48.879Z,0.20
2023-03-16T15:11:21.356Z,0.20
2023-03-16T15:13:48.332Z,0.30
2023-03-16T15:16:14.734Z,0.30
2023-03-16T15:18:41.949Z,0.20
2023-03-16T15:21:16.484Z,0.32
2023-03-16T15:23:43.669Z,0.40
2023-03-16T15:26:24.477Z,0.20
2023-03-16T15:28:51.780Z,0.30
2023-03-16T15:31:18.278Z,0.17
2023-03-16T15:33:45.585Z,0.38
2023-03-16T15:36:15.968Z,0.35
2023-03-16T15:38:44.811Z,0.20
2023-03-16T15:41:11.422Z,0.32
2023-03-16T15:43:38.284Z,0.30
2023-03-16T15:46:05.238Z,0.20
2023-03-16T15:48:32.244Z,0.30
2023-03-16T15:51:08.385Z,0.20
2023-03-16T15:53:43.765Z,0.45
2023-03-16T15:56:11.760Z,0.30
2023-03-16T15:58:40.320Z,0.28
2023-03-16T16:01:07.725Z,0.20
2023-03-16T16:03:34.326Z,0.17
2023-03-16T16:06:01.001Z,0.10
2023-03-16T16:08:27.857Z,0.30
2023-03-16T16:10:55.084Z,0.20
2023-03-16T16:13:43.096Z,0.30
2023-03-16T16:16:15.921Z,0.20
2023-03-16T16:18:42.679Z,0.20
2023-03-16T16:21:14.996Z,0.50
2023-03-16T16:26:12.806Z,0.30
2023-03-16T16:28:39.313Z,0.30
2023-03-16T16:31:11.793Z,0.20
2023-03-16T16:33:38.177Z,0.38
2023-03-16T16:36:06.143Z,0.20
2023-03-16T16:38:33.109Z,0.13
2023-03-16T16:41:00.743Z,0.20
2023-03-16T16:43:32.277Z,0.20
2023-03-16T16:46:04.895Z,0.30
2023-03-16T16:48:37.001Z,0.30
2023-03-16T16:51:04.160Z,0.40
2023-03-16T16:53:30.587Z,0.30
2023-03-16T16:55:57.123Z,0.30
2023-03-16T16:58:24.789Z,0.28
2023-03-16T17:00:58.128Z,0.50
2023-03-16T17:03:28.373Z,0.38
2023-03-16T17:05:56.348Z,0.60
2023-03-16T17:08:23.623Z,0.40
2023-03-16T17:10:51.802Z,0.40
2023-03-16T17:13:28.702Z,0.43
2023-03-16T17:15:55.542Z,0.60
2023-03-16T17:18:22.247Z,0.40
2023-03-16T17:20:50.780Z,0.40
2023-03-16T17:23:29.315Z,0.32
2023-03-16T17:25:57.170Z,0.40
2023-03-16T17:28:25.866Z,0.20
2023-03-16T17:30:52.753Z,0.40
2023-03-16T17:33:19.625Z,0.60
2023-03-16T17:35:46.755Z,0.60
2023-03-16T17:38:21.248Z,0.50
2023-03-16T17:40:48.470Z,0.63
2023-03-16T17:43:16.411Z,0.50
2023-03-16T17:45:44.040Z,0.80
2023-03-16T17:48:16.599Z,0.65
2023-03-16T17:50:46.757Z,0.73
2023-03-16T17:53:17.048Z,0.73
2023-03-16T17:55:43.811Z,0.93
2023-03-16T17:58:20.610Z,1.00
2023-03-16T18:00:49.353Z,0.80
2023-03-16T18:03:17.677Z,1.23
2023-03-16T18:05:44.601Z,1.20
2023-03-16T18:08:13.665Z,1.30
2023-03-16T18:10:40.689Z,1.30
2023-03-16T18:13:08.932Z,1.33
2023-03-16T18:15:36.631Z,1.60
2023-03-16T18:18:04.580Z,1.45
2023-03-16T18:20:34.413Z,1.80
2023-03-16T18:23:01.891Z,1.90
2023-03-16T18:25:31.571Z,1.85
2023-03-16T18:27:58.018Z,2.00
2023-03-16T18:30:26.037Z,2.40
2023-03-16T18:32:52.987Z,2.40
2023-03-16T18:35:20.410Z,2.70
2023-03-16T18:37:47.823Z,2.58
2023-03-16T18:40:15.867Z,3.15
2023-03-16T18:42:42.653Z,3.47
2023-03-16T18:45:13.152Z,3.05
2023-03-16T18:47:43.811Z,3.65
2023-03-16T18:50:18.408Z,3.83
2023-03-16T18:52:44.878Z,4.07
2023-03-16T18:55:16.117Z,3.88
2023-03-16T18:57:42.532Z,4.65
2023-03-16T19:00:14.536Z,4.65
2023-03-16T19:02:42.265Z,4.70
2023-03-16T19:05:12.823Z,5.20
2023-03-16T19:07:41.138Z,5.30
2023-03-16T19:10:27.481Z,6.50
2023-03-16T19:13:07.720Z,6.63
2023-03-16T19:15:35.608Z,6.07
2023-03-16T19:18:02.151Z,6.45
2023-03-16T19:20:30.408Z,6.68
2023-03-16T19:23:13.785Z,8.20
2023-03-16T19:25:41.317Z,8.15
2023-03-16T19:28:13.010Z,8.35
2023-03-16T19:30:39.500Z,8.52
2023-03-16T19:33:16.183Z,9.27
2023-03-16T19:35:51.383Z,8.98
2023-03-16T19:38:19.319Z,9.30
2023-03-16T19:40:47.367Z,9.00
2023-03-16T19:43:18.453Z,9.90
2023-03-16T19:45:45.252Z,10.35
2023-03-16T19:48:14.594Z,9.40
2023-03-16T19:50:41.163Z,9.75
2023-03-16T19:53:15.249Z,10.32
2023-03-16T19:55:41.835Z,10.20
2023-03-16T19:58:15.439Z,10.30
2023-03-16T20:00:41.952Z,10.85
2023-03-16T20:03:11.108Z,10.20
2023-03-16T20:05:39.740Z,10.93
2023-03-16T20:08:13.584Z,10.20
2023-03-16T20:10:40.014Z,11.13
2023-03-16T20:13:07.655Z,10.93
2023-03-16T20:15:35.394Z,10.70
2023-03-16T20:18:02.282Z,11.23
2023-03-16T20:20:29.751Z,10.93
2023-03-16T20:22:59.243Z,11.50
2023-03-16T20:25:30.353Z,11.23
2023-03-16T20:28:01.206Z,11.30
2023-03-16T20:30:28.698Z,11.35
2023-03-16T20:32:55.762Z,11.10
2023-03-16T20:35:27.599Z,11.02
2023-03-16T20:37:54.839Z,12.57
2023-03-16T20:40:22.616Z,11.27
2023-03-16T20:42:49.677Z,11.18
2023-03-16T20:45:23.572Z,11.57
2023-03-16T20:47:51.020Z,11.85
2023-03-16T20:50:28.154Z,11.30
2023-03-16T20:52:54.761Z,11.93
2023-03-16T20:55:23.154Z,11.63
2023-03-16T20:57:50.656Z,11.63
2023-03-16T21:00:26.676Z,11.90
2023-03-16T21:02:54.667Z,11.65
2023-03-16T21:05:21.507Z,11.73
2023-03-16T21:07:47.918Z,12.18
2023-03-16T21:10:16.235Z,11.13
2023-03-16T21:12:44.607Z,11.60
2023-03-16T21:15:16.459Z,13.02
2023-03-16T21:17:43.096Z,12.55
2023-03-16T21:20:17.120Z,12.63
2023-03-16T21:22:43.885Z,13.35
2023-03-16T21:25:36.638Z,12.35
2023-03-16T21:30:31.911Z,12.07
2023-03-16T21:32:59.915Z,12.82
2023-03-16T21:35:31.204Z,12.10
2023-03-16T21:37:58.203Z,12.23
2023-03-16T21:40:24.628Z,12.70
2023-03-16T21:42:51.089Z,12.57
2023-03-16T21:45:17.925Z,13.23
2023-03-16T21:47:46.542Z,12.88
2023-03-16T21:50:21.037Z,13.00
2023-03-16T21:52:47.735Z,13.13
2023-03-16T21:55:23.248Z,12.23
2023-03-16T21:57:50.244Z,12.95
2023-03-16T22:00:18.812Z,12.77
2023-03-16T22:02:46.778Z,12.82
2023-03-16T22:05:39.867Z,12.05
2023-03-16T22:08:18.828Z,13.13
2023-03-16T22:10:45.817Z,12.55
2023-03-16T22:13:12.589Z,12.57
2023-03-16T22:15:41.159Z,11.32
2023-03-16T22:18:11.136Z,12.00
2023-03-16T22:20:37.872Z,11.45
2023-03-16T22:23:04.588Z,11.85
2023-03-16T22:25:31.276Z,11.63
2023-03-16T22:27:58.162Z,10.90
2023-03-16T22:30:27.376Z,11.13
2023-03-16T22:32:56.634Z,10.55
2023-03-16T22:35:26.168Z,10.70
2023-03-16T22:37:53.767Z,11.18
2023-03-16T22:40:20.334Z,10.57
2023-03-16T22:42:46.720Z,9.85
2023-03-16T22:45:23.945Z,10.38
2023-03-16T22:47:50.747Z,9.98
2023-03-16T22:50:17.955Z,9.40
2023-03-16T22:52:46.254Z,9.20
2023-03-16T22:55:21.349Z,9.50
2023-03-16T22:57:49.610Z,9.73
2023-03-16T23:00:20.890Z,8.77
2023-03-16T23:02:50.052Z,9.88
2023-03-16T23:05:21.493Z,9.40
2023-03-16T23:07:47.992Z,9.87
2023-03-16T23:10:15.900Z,8.68
2023-03-16T23:12:42.920Z,8.68
2023-03-16T23:15:29.899Z,8.60
2023-03-16T23:17:56.571Z,8.63
2023-03-16T23:20:27.906Z,8.48
2023-03-16T23:22:55.259Z,9.20
2023-03-16T23:25:22.964Z,9.07
2023-03-16T23:27:50.317Z,8.20
2023-03-16T23:30:16.851Z,8.23
2023-03-16T23:32:43.514Z,8.15
2023-03-16T23:35:17.884Z,8.52
2023-03-16T23:37:44.460Z,8.38
2023-03-16T23:40:11.467Z,8.07
2023-03-16T23:42:38.421Z,8.25
2023-03-16T23:45:08.454Z,7.72
2023-03-16T23:47:34.833Z,8.05
2023-03-16T23:50:01.262Z,7.97
2023-03-16T23:52:27.872Z,8.35
2023-03-16T23:54:54.261Z,8.25
2023-03-16T23:57:21.029Z,7.55
2023-03-16T23:59:47.637Z,8.30
